KMCF/MCF METAR and TAF weather

Enter ICAO airport designator
Station Type Date Time Source
KMCF METAR 2019/02/21 15:56 UTC NOAA

KMCF 211556Z AUTO 14008KT 10SM CLR 26/21 A3015 RMK AO2 SLP213 T02630213 FZRANO $


Station Type Date Time Source
KMCF Decoded METAR 2019/02/21 15:56 UTC NOAA

Macdill Air Force Base, Fl., FL, United States (KMCF) 27-51N 082-30W 4M
Feb 21, 2019 - 10:56 AM EST / 2019.02.21 1556 UTC
Wind: from the SE (140 degrees) at 9 MPH (8 KT):0
Visibility: 10 mile(s):0
Sky conditions: clear
Temperature: 79.3 F (26.3 C)
Dew Point: 70.3 F (21.3 C)
Relative Humidity: 74%
Pressure (altimeter): 30.15 in. Hg (1020 hPa)
ob: KMCF 211556Z AUTO 14008KT 10SM CLR 26/21 A3015 RMK AO2 SLP213 T02630213 FZRANO
cycle: 16

Station Type Date Time Source
KMCF TAF 2019/02/21 09:12 UTC NOAA

TAF KMCF 210900Z 2109/2215 13006KT 9999 SCT030 BKN060 QNH3006INS
BECMG 2117/2118 19006KT 9999 SCT040 SCT080 QNH3007INS
BECMG 2202/2203 VRB04KT 8000 -RA BR SCT010 BKN020 QNH3010INS TX29/2120Z TN19/2109Z


Example: see airport list